sensor_id;sensor_type;location;lat;lon;timestamp;temperature;humidity
57566;DHT22;63999;43.882;-0.310;2024-03-23T00:53:54;18.80;88.70
57566;DHT22;63999;43.882;-0.310;2024-03-23T00:56:20;18.70;88.70
57566;DHT22;63999;43.882;-0.310;2024-03-23T00:58:46;18.70;89.00
57566;DHT22;63999;43.882;-0.310;2024-03-23T01:01:12;18.70;89.10
57566;DHT22;63999;43.882;-0.310;2024-03-23T01:03:38;18.70;89.00
57566;DHT22;63999;43.882;-0.310;2024-03-23T01:06:04;18.70;88.40
57566;DHT22;63999;43.882;-0.310;2024-03-23T01:08:30;18.70;88.80
57566;DHT22;63999;43.882;-0.310;2024-03-23T01:10:57;18.70;89.00
57566;DHT22;63999;43.882;-0.310;2024-03-23T01:13:24;18.70;88.60
57566;DHT22;63999;43.882;-0.310;2024-03-23T01:15:54;18.60;88.60
57566;DHT22;63999;43.882;-0.310;2024-03-23T01:18:21;18.60;88.10
57566;DHT22;63999;43.882;-0.310;2024-03-23T01:20:48;18.50;87.90
57566;DHT22;63999;43.882;-0.310;2024-03-23T01:23:14;18.50;87.70
57566;DHT22;63999;43.882;-0.310;2024-03-23T01:25:40;18.50;87.90
57566;DHT22;63999;43.882;-0.310;2024-03-23T01:28:06;18.50;87.90
57566;DHT22;63999;43.882;-0.310;2024-03-23T01:30:35;18.50;88.30
57566;DHT22;63999;43.882;-0.310;2024-03-23T01:33:02;18.50;88.60
57566;DHT22;63999;43.882;-0.310;2024-03-23T01:35:30;18.50;88.20
57566;DHT22;63999;43.882;-0.310;2024-03-23T01:37:57;18.50;88.30
57566;DHT22;63999;43.882;-0.310;2024-03-23T01:40:23;18.50;88.50
57566;DHT22;63999;43.882;-0.310;2024-03-23T01:42:56;18.50;88.70
57566;DHT22;63999;43.882;-0.310;2024-03-23T01:45:22;18.50;88.70
57566;DHT22;63999;43.882;-0.310;2024-03-23T01:47:52;18.50;88.90
57566;DHT22;63999;43.882;-0.310;2024-03-23T01:50:19;18.50;88.90
57566;DHT22;63999;43.882;-0.310;2024-03-23T01:52:46;18.50;88.70
57566;DHT22;63999;43.882;-0.310;2024-03-23T01:55:13;18.40;88.20
57566;DHT22;63999;43.882;-0.310;2024-03-23T01:57:39;18.40;88.50
57566;DHT22;63999;43.882;-0.310;2024-03-23T02:00:05;18.40;88.90
57566;DHT22;63999;43.882;-0.310;2024-03-23T02:02:32;18.40;88.90
57566;DHT22;63999;43.882;-0.310;2024-03-23T02:04:58;18.40;89.00
57566;DHT22;63999;43.882;-0.310;2024-03-23T02:07:24;18.30;88.90
57566;DHT22;63999;43.882;-0.310;2024-03-23T02:09:51;18.30;88.70
57566;DHT22;63999;43.882;-0.310;2024-03-23T02:12:18;18.30;88.90
57566;DHT22;63999;43.882;-0.310;2024-03-23T02:14:44;18.30;89.00
57566;DHT22;63999;43.882;-0.310;2024-03-23T02:17:10;18.30;89.00
57566;DHT22;63999;43.882;-0.310;2024-03-23T02:19:36;18.20;89.00
57566;DHT22;63999;43.882;-0.310;2024-03-23T02:22:03;18.20;89.00
57566;DHT22;63999;43.882;-0.310;2024-03-23T02:24:29;18.20;89.00
57566;DHT22;63999;43.882;-0.310;2024-03-23T02:26:55;18.20;89.10
57566;DHT22;63999;43.882;-0.310;2024-03-23T02:29:21;18.20;89.20
57566;DHT22;63999;43.882;-0.310;2024-03-23T02:31:48;18.20;89.20
57566;DHT22;63999;43.882;-0.310;2024-03-23T02:34:14;18.20;89.20
57566;DHT22;63999;43.882;-0.310;2024-03-23T02:36:40;18.20;89.20
57566;DHT22;63999;43.882;-0.310;2024-03-23T02:39:06;18.10;89.20
57566;DHT22;63999;43.882;-0.310;2024-03-23T02:41:35;18.10;89.20
57566;DHT22;63999;43.882;-0.310;2024-03-23T02:44:01;18.10;89.30
57566;DHT22;63999;43.882;-0.310;2024-03-23T02:46:27;18.20;89.40
57566;DHT22;63999;43.882;-0.310;2024-03-23T02:48:53;18.10;89.40
57566;DHT22;63999;43.882;-0.310;2024-03-23T02:51:19;18.10;89.50
57566;DHT22;63999;43.882;-0.310;2024-03-23T02:53:45;18.10;89.50
57566;DHT22;63999;43.882;-0.310;2024-03-23T02:56:11;18.10;89.40
57566;DHT22;63999;43.882;-0.310;2024-03-23T02:58:42;18.10;89.50
57566;DHT22;63999;43.882;-0.310;2024-03-23T03:01:08;18.00;89.50
57566;DHT22;63999;43.882;-0.310;2024-03-23T03:03:35;18.00;89.50
57566;DHT22;63999;43.882;-0.310;2024-03-23T03:06:01;18.00;89.60
57566;DHT22;63999;43.882;-0.310;2024-03-23T03:08:27;18.00;89.50
57566;DHT22;63999;43.882;-0.310;2024-03-23T03:10:52;18.00;89.50
57566;DHT22;63999;43.882;-0.310;2024-03-23T03:13:18;18.00;89.50
57566;DHT22;63999;43.882;-0.310;2024-03-23T03:15:45;18.00;89.60
57566;DHT22;63999;43.882;-0.310;2024-03-23T03:18:11;18.00;89.60
57566;DHT22;63999;43.882;-0.310;2024-03-23T03:20:40;18.00;89.50
57566;DHT22;63999;43.882;-0.310;2024-03-23T03:23:07;17.90;89.50
57566;DHT22;63999;43.882;-0.310;2024-03-23T03:25:33;17.80;89.60
57566;DHT22;63999;43.882;-0.310;2024-03-23T03:28:00;17.80;89.50
57566;DHT22;63999;43.882;-0.310;2024-03-23T03:30:26;17.80;89.60
57566;DHT22;63999;43.882;-0.310;2024-03-23T03:32:55;17.80;89.60
57566;DHT22;63999;43.882;-0.310;2024-03-23T03:35:21;17.80;89.70
57566;DHT22;63999;43.882;-0.310;2024-03-23T03:37:48;17.80;89.60
57566;DHT22;63999;43.882;-0.310;2024-03-23T03:40:14;17.80;89.60
57566;DHT22;63999;43.882;-0.310;2024-03-23T03:42:41;17.80;89.70
57566;DHT22;63999;43.882;-0.310;2024-03-23T03:45:07;17.80;89.80
57566;DHT22;63999;43.882;-0.310;2024-03-23T03:47:33;17.80;89.70
57566;DHT22;63999;43.882;-0.310;2024-03-23T03:49:59;17.80;89.80
57566;DHT22;63999;43.882;-0.310;2024-03-23T03:52:26;17.80;89.90
57566;DHT22;63999;43.882;-0.310;2024-03-23T03:54:55;17.80;89.90
57566;DHT22;63999;43.882;-0.310;2024-03-23T03:57:21;17.80;89.80
57566;DHT22;63999;43.882;-0.310;2024-03-23T03:59:47;17.80;89.80
57566;DHT22;63999;43.882;-0.310;2024-03-23T04:02:13;17.80;89.70
57566;DHT22;63999;43.882;-0.310;2024-03-23T04:04:39;17.80;89.70
57566;DHT22;63999;43.882;-0.310;2024-03-23T04:07:05;17.80;89.70
57566;DHT22;63999;43.882;-0.310;2024-03-23T04:09:31;17.80;89.60
57566;DHT22;63999;43.882;-0.310;2024-03-23T04:11:58;17.80;89.60
57566;DHT22;63999;43.882;-0.310;2024-03-23T04:14:24;17.80;89.80
57566;DHT22;63999;43.882;-0.310;2024-03-23T04:16:49;17.80;89.70
57566;DHT22;63999;43.882;-0.310;2024-03-23T04:19:15;17.80;89.70
57566;DHT22;63999;43.882;-0.310;2024-03-23T04:21:42;17.70;89.70
57566;DHT22;63999;43.882;-0.310;2024-03-23T04:24:08;17.70;89.70
57566;DHT22;63999;43.882;-0.310;2024-03-23T04:26:43;17.70;89.60
57566;DHT22;63999;43.882;-0.310;2024-03-23T04:29:09;17.60;89.30
57566;DHT22;63999;43.882;-0.310;2024-03-23T04:31:35;17.60;89.00
57566;DHT22;63999;43.882;-0.310;2024-03-23T04:34:02;17.60;89.30
57566;DHT22;63999;43.882;-0.310;2024-03-23T04:36:28;17.60;89.80
57566;DHT22;63999;43.882;-0.310;2024-03-23T04:38:54;17.60;89.80
57566;DHT22;63999;43.882;-0.310;2024-03-23T04:41:20;17.60;89.70
57566;DHT22;63999;43.882;-0.310;2024-03-23T04:43:46;17.50;89.70
57566;DHT22;63999;43.882;-0.310;2024-03-23T04:46:12;17.50;89.60
57566;DHT22;63999;43.882;-0.310;2024-03-23T04:48:38;17.40;89.50
57566;DHT22;63999;43.882;-0.310;2024-03-23T04:51:04;17.40;89.60
57566;DHT22;63999;43.882;-0.310;2024-03-23T04:53:30;17.40;89.50
57566;DHT22;63999;43.882;-0.310;2024-03-23T04:55:57;17.30;89.50
57566;DHT22;63999;43.882;-0.310;2024-03-23T04:58:25;17.20;89.30
57566;DHT22;63999;43.882;-0.310;2024-03-23T05:00:55;17.20;89.10
57566;DHT22;63999;43.882;-0.310;2024-03-23T05:03:22;17.20;89.10
57566;DHT22;63999;43.882;-0.310;2024-03-23T05:05:48;17.10;89.10
57566;DHT22;63999;43.882;-0.310;2024-03-23T05:08:15;17.00;89.00
57566;DHT22;63999;43.882;-0.310;2024-03-23T05:10:44;17.00;89.00
57566;DHT22;63999;43.882;-0.310;2024-03-23T05:13:10;17.00;88.90
57566;DHT22;63999;43.882;-0.310;2024-03-23T05:15:36;16.90;88.90
57566;DHT22;63999;43.882;-0.310;2024-03-23T05:18:02;16.90;88.90
57566;DHT22;63999;43.882;-0.310;2024-03-23T05:20:29;16.90;88.80
57566;DHT22;63999;43.882;-0.310;2024-03-23T05:22:55;16.80;88.70
57566;DHT22;63999;43.882;-0.310;2024-03-23T05:25:21;16.80;88.60
57566;DHT22;63999;43.882;-0.310;2024-03-23T05:27:47;16.80;88.60
57566;DHT22;63999;43.882;-0.310;2024-03-23T05:30:13;16.70;88.60
57566;DHT22;63999;43.882;-0.310;2024-03-23T05:32:40;16.70;88.60
57566;DHT22;63999;43.882;-0.310;2024-03-23T05:35:09;16.70;88.50
57566;DHT22;63999;43.882;-0.310;2024-03-23T05:37:35;16.60;88.40
57566;DHT22;63999;43.882;-0.310;2024-03-23T05:40:01;16.60;88.50
57566;DHT22;63999;43.882;-0.310;2024-03-23T05:42:28;16.60;88.50
57566;DHT22;63999;43.882;-0.310;2024-03-23T05:44:54;16.60;88.70
57566;DHT22;63999;43.882;-0.310;2024-03-23T05:47:20;16.60;88.50
57566;DHT22;63999;43.882;-0.310;2024-03-23T05:49:46;16.60;88.40
57566;DHT22;63999;43.882;-0.310;2024-03-23T05:52:13;16.60;88.50
57566;DHT22;63999;43.882;-0.310;2024-03-23T05:54:39;16.60;88.40
57566;DHT22;63999;43.882;-0.310;2024-03-23T05:57:05;16.50;88.50
57566;DHT22;63999;43.882;-0.310;2024-03-23T05:59:34;16.50;88.30
57566;DHT22;63999;43.882;-0.310;2024-03-23T06:02:00;16.50;88.20
57566;DHT22;63999;43.882;-0.310;2024-03-23T06:04:26;16.50;88.20
57566;DHT22;63999;43.882;-0.310;2024-03-23T06:06:52;16.40;88.10
57566;DHT22;63999;43.882;-0.310;2024-03-23T06:09:18;16.40;88.30
57566;DHT22;63999;43.882;-0.310;2024-03-23T06:11:45;16.40;88.30
57566;DHT22;63999;43.882;-0.310;2024-03-23T06:14:11;16.40;88.20
57566;DHT22;63999;43.882;-0.310;2024-03-23T06:16:37;16.40;88.10
57566;DHT22;63999;43.882;-0.310;2024-03-23T06:19:04;16.40;88.00
57566;DHT22;63999;43.882;-0.310;2024-03-23T06:21:33;16.40;88.10
57566;DHT22;63999;43.882;-0.310;2024-03-23T06:23:59;16.30;87.80
57566;DHT22;63999;43.882;-0.310;2024-03-23T06:26:25;16.20;87.80
57566;DHT22;63999;43.882;-0.310;2024-03-23T06:28:51;16.20;87.70
57566;DHT22;63999;43.882;-0.310;2024-03-23T06:31:17;16.20;87.70
57566;DHT22;63999;43.882;-0.310;2024-03-23T06:33:43;16.10;87.50
57566;DHT22;63999;43.882;-0.310;2024-03-23T06:36:10;16.10;87.40
57566;DHT22;63999;43.882;-0.310;2024-03-23T06:38:40;16.10;87.10
57566;DHT22;63999;43.882;-0.310;2024-03-23T06:41:06;16.00;87.30
57566;DHT22;63999;43.882;-0.310;2024-03-23T06:43:32;16.00;87.10
57566;DHT22;63999;43.882;-0.310;2024-03-23T06:45:58;16.00;87.30
57566;DHT22;63999;43.882;-0.310;2024-03-23T06:48:24;16.00;87.80
57566;DHT22;63999;43.882;-0.310;2024-03-23T06:50:58;16.00;87.10
57566;DHT22;63999;43.882;-0.310;2024-03-23T06:53:24;16.00;87.40
57566;DHT22;63999;43.882;-0.310;2024-03-23T06:55:52;16.00;86.80
57566;DHT22;63999;43.882;-0.310;2024-03-23T06:58:23;15.80;86.70
57566;DHT22;63999;43.882;-0.310;2024-03-23T07:00:49;15.80;86.80
57566;DHT22;63999;43.882;-0.310;2024-03-23T07:03:17;15.80;86.80
57566;DHT22;63999;43.882;-0.310;2024-03-23T07:05:43;15.80;86.50
57566;DHT22;63999;43.882;-0.310;2024-03-23T07:08:09;15.80;86.60
57566;DHT22;63999;43.882;-0.310;2024-03-23T07:10:39;15.80;86.60
57566;DHT22;63999;43.882;-0.310;2024-03-23T07:13:05;15.60;86.40
57566;DHT22;63999;43.882;-0.310;2024-03-23T07:15:31;15.60;86.20
57566;DHT22;63999;43.882;-0.310;2024-03-23T07:17:57;15.60;86.70
57566;DHT22;63999;43.882;-0.310;2024-03-23T07:20:23;15.60;86.70
57566;DHT22;63999;43.882;-0.310;2024-03-23T07:22:49;15.60;86.60
57566;DHT22;63999;43.882;-0.310;2024-03-23T07:25:15;15.70;86.60
57566;DHT22;63999;43.882;-0.310;2024-03-23T07:27:42;15.60;86.40
57566;DHT22;63999;43.882;-0.310;2024-03-23T07:30:09;15.60;85.80
57566;DHT22;63999;43.882;-0.310;2024-03-23T07:32:35;15.60;86.50
57566;DHT22;63999;43.882;-0.310;2024-03-23T07:35:02;15.60;86.00
57566;DHT22;63999;43.882;-0.310;2024-03-23T07:37:28;15.60;86.40
57566;DHT22;63999;43.882;-0.310;2024-03-23T07:39:54;15.60;86.20
57566;DHT22;63999;43.882;-0.310;2024-03-23T07:42:20;15.60;86.30
57566;DHT22;63999;43.882;-0.310;2024-03-23T07:44:47;15.60;85.90
57566;DHT22;63999;43.882;-0.310;2024-03-23T07:47:13;15.50;85.50
57566;DHT22;63999;43.882;-0.310;2024-03-23T07:49:39;15.50;86.00
57566;DHT22;63999;43.882;-0.310;2024-03-23T07:52:06;15.40;84.70
57566;DHT22;63999;43.882;-0.310;2024-03-23T07:57:07;15.40;85.70
57566;DHT22;63999;43.882;-0.310;2024-03-23T07:59:33;15.40;85.50
57566;DHT22;63999;43.882;-0.310;2024-03-23T08:02:00;15.40;85.20
57566;DHT22;63999;43.882;-0.310;2024-03-23T08:04:27;15.30;85.70
57566;DHT22;63999;43.882;-0.310;2024-03-23T08:10:34;15.50;86.00
57566;DHT22;63999;43.882;-0.310;2024-03-23T08:13:00;15.40;85.10
57566;DHT22;63999;43.882;-0.310;2024-03-23T08:15:26;15.40;85.30
57566;DHT22;63999;43.882;-0.310;2024-03-23T08:17:52;15.40;85.80
57566;DHT22;63999;43.882;-0.310;2024-03-23T08:20:18;15.40;85.90
57566;DHT22;63999;43.882;-0.310;2024-03-23T08:22:44;15.40;85.40
57566;DHT22;63999;43.882;-0.310;2024-03-23T08:25:10;15.40;85.50
57566;DHT22;63999;43.882;-0.310;2024-03-23T08:27:36;15.30;85.90
57566;DHT22;63999;43.882;-0.310;2024-03-23T08:30:02;15.40;86.30
57566;DHT22;63999;43.882;-0.310;2024-03-23T08:32:29;15.40;85.70
57566;DHT22;63999;43.882;-0.310;2024-03-23T08:34:54;15.40;85.90
57566;DHT22;63999;43.882;-0.310;2024-03-23T08:37:21;15.40;85.60
57566;DHT22;63999;43.882;-0.310;2024-03-23T08:39:47;15.40;85.50
57566;DHT22;63999;43.882;-0.310;2024-03-23T08:42:19;15.30;85.40
57566;DHT22;63999;43.882;-0.310;2024-03-23T08:44:46;15.30;85.30
57566;DHT22;63999;43.882;-0.310;2024-03-23T08:47:18;15.20;85.20
57566;DHT22;63999;43.882;-0.310;2024-03-23T08:49:44;15.20;85.50
57566;DHT22;63999;43.882;-0.310;2024-03-23T08:52:10;15.30;85.50
57566;DHT22;63999;43.882;-0.310;2024-03-23T08:54:36;15.30;85.50
57566;DHT22;63999;43.882;-0.310;2024-03-23T08:57:02;15.40;85.70
57566;DHT22;63999;43.882;-0.310;2024-03-23T08:59:28;15.40;85.50
57566;DHT22;63999;43.882;-0.310;2024-03-23T09:01:55;15.40;85.60
57566;DHT22;63999;43.882;-0.310;2024-03-23T09:04:21;15.40;85.60
57566;DHT22;63999;43.882;-0.310;2024-03-23T09:06:47;15.40;86.10
57566;DHT22;63999;43.882;-0.310;2024-03-23T09:09:13;15.50;86.30
57566;DHT22;63999;43.882;-0.310;2024-03-23T09:11:39;15.50;85.20
57566;DHT22;63999;43.882;-0.310;2024-03-23T09:14:05;15.40;85.50
57566;DHT22;63999;43.882;-0.310;2024-03-23T09:16:31;15.40;86.00
57566;DHT22;63999;43.882;-0.310;2024-03-23T09:18:57;15.50;86.20
57566;DHT22;63999;43.882;-0.310;2024-03-23T09:21:23;15.50;86.00
57566;DHT22;63999;43.882;-0.310;2024-03-23T09:23:49;15.50;86.20
57566;DHT22;63999;43.882;-0.310;2024-03-23T09:26:15;15.60;85.90
57566;DHT22;63999;43.882;-0.310;2024-03-23T09:28:41;15.60;86.30
57566;DHT22;63999;43.882;-0.310;2024-03-23T09:31:09;15.60;86.00
57566;DHT22;63999;43.882;-0.310;2024-03-23T09:33:41;15.60;86.10
57566;DHT22;63999;43.882;-0.310;2024-03-23T09:36:08;15.70;86.70
57566;DHT22;63999;43.882;-0.310;2024-03-23T09:38:35;15.80;86.60
57566;DHT22;63999;43.882;-0.310;2024-03-23T09:41:06;15.80;86.50
57566;DHT22;63999;43.882;-0.310;2024-03-23T09:43:32;15.80;86.60
57566;DHT22;63999;43.882;-0.310;2024-03-23T09:45:58;15.80;86.50
57566;DHT22;63999;43.882;-0.310;2024-03-23T09:48:24;15.80;86.90
57566;DHT22;63999;43.882;-0.310;2024-03-23T09:50:50;15.80;86.60
57566;DHT22;63999;43.882;-0.310;2024-03-23T09:53:16;15.80;86.90
57566;DHT22;63999;43.882;-0.310;2024-03-23T09:55:44;15.90;86.70
57566;DHT22;63999;43.882;-0.310;2024-03-23T09:58:16;16.00;87.20
57566;DHT22;63999;43.882;-0.310;2024-03-23T10:00:42;16.00;87.00
57566;DHT22;63999;43.882;-0.310;2024-03-23T10:03:08;16.00;87.20
57566;DHT22;63999;43.882;-0.310;2024-03-23T10:05:37;16.00;87.10
57566;DHT22;63999;43.882;-0.310;2024-03-23T10:10:42;15.80;86.60
57566;DHT22;63999;43.882;-0.310;2024-03-23T10:13:08;15.90;86.40
57566;DHT22;63999;43.882;-0.310;2024-03-23T10:15:35;15.90;86.20
57566;DHT22;63999;43.882;-0.310;2024-03-23T10:18:20;15.90;86.70
57566;DHT22;63999;43.882;-0.310;2024-03-23T10:20:52;16.00;86.70
57566;DHT22;63999;43.882;-0.310;2024-03-23T10:23:19;16.00;86.90
57566;DHT22;63999;43.882;-0.310;2024-03-23T10:25:45;16.00;87.10
57566;DHT22;63999;43.882;-0.310;2024-03-23T10:28:13;16.00;86.80
57566;DHT22;63999;43.882;-0.310;2024-03-23T10:30:40;16.00;86.30
57566;DHT22;63999;43.882;-0.310;2024-03-23T10:33:10;16.00;86.50
57566;DHT22;63999;43.882;-0.310;2024-03-23T10:35:37;16.00;86.70
57566;DHT22;63999;43.882;-0.310;2024-03-23T10:38:05;16.10;86.40
57566;DHT22;63999;43.882;-0.310;2024-03-23T10:40:36;16.10;87.00
57566;DHT22;63999;43.882;-0.310;2024-03-23T10:43:06;16.10;87.00
57566;DHT22;63999;43.882;-0.310;2024-03-23T10:45:34;16.10;86.70
57566;DHT22;63999;43.882;-0.310;2024-03-23T10:48:00;16.10;86.30
57566;DHT22;63999;43.882;-0.310;2024-03-23T10:50:27;16.10;86.40
57566;DHT22;63999;43.882;-0.310;2024-03-23T10:52:53;16.10;85.90
57566;DHT22;63999;43.882;-0.310;2024-03-23T10:55:23;16.10;86.00
57566;DHT22;63999;43.882;-0.310;2024-03-23T10:57:57;16.10;86.90
57566;DHT22;63999;43.882;-0.310;2024-03-23T11:00:25;16.20;86.80
57566;DHT22;63999;43.882;-0.310;2024-03-23T11:02:52;16.20;86.90
57566;DHT22;63999;43.882;-0.310;2024-03-23T11:05:28;16.30;87.10
57566;DHT22;63999;43.882;-0.310;2024-03-23T11:07:54;16.30;86.90
57566;DHT22;63999;43.882;-0.310;2024-03-23T11:10:30;16.30;87.20
57566;DHT22;63999;43.882;-0.310;2024-03-23T11:12:57;16.30;87.20
57566;DHT22;63999;43.882;-0.310;2024-03-23T11:15:24;16.40;86.90
57566;DHT22;63999;43.882;-0.310;2024-03-23T11:18:06;16.40;87.00
57566;DHT22;63999;43.882;-0.310;2024-03-23T11:20:38;16.40;87.20
57566;DHT22;63999;43.882;-0.310;2024-03-23T11:23:04;16.40;87.10
57566;DHT22;63999;43.882;-0.310;2024-03-23T11:25:30;16.40;87.30
57566;DHT22;63999;43.882;-0.310;2024-03-23T11:27:58;16.40;87.40
57566;DHT22;63999;43.882;-0.310;2024-03-23T11:30:34;16.40;87.30
57566;DHT22;63999;43.882;-0.310;2024-03-23T11:33:02;16.40;87.20
57566;DHT22;63999;43.882;-0.310;2024-03-23T11:35:33;16.40;87.30
57566;DHT22;63999;43.882;-0.310;2024-03-23T11:40:43;16.40;85.90
57566;DHT22;63999;43.882;-0.310;2024-03-23T11:43:19;16.40;86.90
57566;DHT22;63999;43.882;-0.310;2024-03-23T11:45:51;16.40;87.20
57566;DHT22;63999;43.882;-0.310;2024-03-23T11:48:22;16.40;87.10
57566;DHT22;63999;43.882;-0.310;2024-03-23T11:50:50;16.40;87.30
57566;DHT22;63999;43.882;-0.310;2024-03-23T11:53:24;16.50;87.40
57566;DHT22;63999;43.882;-0.310;2024-03-23T11:55:56;16.50;87.40
57566;DHT22;63999;43.882;-0.310;2024-03-23T11:58:27;16.50;87.40
57566;DHT22;63999;43.882;-0.310;2024-03-23T12:01:03;16.40;85.00
57566;DHT22;63999;43.882;-0.310;2024-03-23T12:03:31;16.40;86.70
57566;DHT22;63999;43.882;-0.310;2024-03-23T12:06:00;16.40;87.10
57566;DHT22;63999;43.882;-0.310;2024-03-23T12:08:32;16.50;87.30
57566;DHT22;63999;43.882;-0.310;2024-03-23T12:13:34;16.50;87.10
57566;DHT22;63999;43.882;-0.310;2024-03-23T12:16:15;16.50;87.30
57566;DHT22;63999;43.882;-0.310;2024-03-23T12:18:43;16.60;87.50
57566;DHT22;63999;43.882;-0.310;2024-03-23T12:21:11;16.60;86.40
57566;DHT22;63999;43.882;-0.310;2024-03-23T12:23:39;16.50;86.60
57566;DHT22;63999;43.882;-0.310;2024-03-23T12:26:06;16.50;87.10
57566;DHT22;63999;43.882;-0.310;2024-03-23T12:28:33;16.60;87.20
57566;DHT22;63999;43.882;-0.310;2024-03-23T12:30:59;16.60;87.50
57566;DHT22;63999;43.882;-0.310;2024-03-23T12:33:25;16.60;87.60
57566;DHT22;63999;43.882;-0.310;2024-03-23T12:35:52;16.70;87.40
57566;DHT22;63999;43.882;-0.310;2024-03-23T12:38:18;16.70;86.80
57566;DHT22;63999;43.882;-0.310;2024-03-23T12:40:50;16.60;86.50
57566;DHT22;63999;43.882;-0.310;2024-03-23T12:43:17;16.60;86.50
57566;DHT22;63999;43.882;-0.310;2024-03-23T12:45:47;16.60;86.10
57566;DHT22;63999;43.882;-0.310;2024-03-23T12:48:13;16.50;84.70
57566;DHT22;63999;43.882;-0.310;2024-03-23T12:50:40;16.50;85.70
57566;DHT22;63999;43.882;-0.310;2024-03-23T12:53:06;16.50;85.40
57566;DHT22;63999;43.882;-0.310;2024-03-23T12:55:32;16.50;85.50
57566;DHT22;63999;43.882;-0.310;2024-03-23T12:57:58;16.50;85.70
57566;DHT22;63999;43.882;-0.310;2024-03-23T13:00:24;16.50;85.70
57566;DHT22;63999;43.882;-0.310;2024-03-23T13:02:51;16.60;85.60
57566;DHT22;63999;43.882;-0.310;2024-03-23T13:05:17;16.60;85.50
57566;DHT22;63999;43.882;-0.310;2024-03-23T13:07:43;16.60;86.10
57566;DHT22;63999;43.882;-0.310;2024-03-23T13:10:09;16.70;85.80
57566;DHT22;63999;43.882;-0.310;2024-03-23T13:12:36;16.60;85.80
57566;DHT22;63999;43.882;-0.310;2024-03-23T13:15:02;16.80;87.30
57566;DHT22;63999;43.882;-0.310;2024-03-23T13:17:28;16.80;86.90
57566;DHT22;63999;43.882;-0.310;2024-03-23T13:19:55;16.80;85.20
57566;DHT22;63999;43.882;-0.310;2024-03-23T13:22:22;16.70;84.90
57566;DHT22;63999;43.882;-0.310;2024-03-23T13:24:48;16.70;86.10
57566;DHT22;63999;43.882;-0.310;2024-03-23T13:27:14;16.70;85.80
57566;DHT22;63999;43.882;-0.310;2024-03-23T13:29:40;16.80;85.50
57566;DHT22;63999;43.882;-0.310;2024-03-23T13:32:07;16.80;85.90
57566;DHT22;63999;43.882;-0.310;2024-03-23T13:34:33;16.80;86.90
57566;DHT22;63999;43.882;-0.310;2024-03-23T13:37:01;16.90;87.20
57566;DHT22;63999;43.882;-0.310;2024-03-23T13:39:27;17.00;87.40
57566;DHT22;63999;43.882;-0.310;2024-03-23T13:41:53;17.00;86.90
57566;DHT22;63999;43.882;-0.310;2024-03-23T13:44:22;16.90;84.30
57566;DHT22;63999;43.882;-0.310;2024-03-23T13:46:48;16.70;84.30
57566;DHT22;63999;43.882;-0.310;2024-03-23T13:49:31;16.70;84.70
57566;DHT22;63999;43.882;-0.310;2024-03-23T13:52:00;16.60;83.90
57566;DHT22;63999;43.882;-0.310;2024-03-23T13:54:27;16.70;84.60
57566;DHT22;63999;43.882;-0.310;2024-03-23T13:56:55;16.70;84.20
57566;DHT22;63999;43.882;-0.310;2024-03-23T13:59:21;16.60;82.60
57566;DHT22;63999;43.882;-0.310;2024-03-23T14:01:51;16.60;83.70
57566;DHT22;63999;43.882;-0.310;2024-03-23T14:04:18;16.70;85.30
57566;DHT22;63999;43.882;-0.310;2024-03-23T14:06:47;16.80;85.20
57566;DHT22;63999;43.882;-0.310;2024-03-23T14:09:13;16.90;85.80
57566;DHT22;63999;43.882;-0.310;2024-03-23T14:11:41;16.90;84.90
57566;DHT22;63999;43.882;-0.310;2024-03-23T14:14:09;16.90;85.30
57566;DHT22;63999;43.882;-0.310;2024-03-23T14:16:35;16.90;85.30
57566;DHT22;63999;43.882;-0.310;2024-03-23T14:19:01;17.00;85.70
57566;DHT22;63999;43.882;-0.310;2024-03-23T14:21:29;17.00;85.80
57566;DHT22;63999;43.882;-0.310;2024-03-23T14:23:55;17.00;85.80
57566;DHT22;63999;43.882;-0.310;2024-03-23T14:26:21;17.00;85.30
57566;DHT22;63999;43.882;-0.310;2024-03-23T14:28:48;17.00;83.40
57566;DHT22;63999;43.882;-0.310;2024-03-23T14:31:15;16.90;83.30
57566;DHT22;63999;43.882;-0.310;2024-03-23T14:33:41;16.80;82.90
57566;DHT22;63999;43.882;-0.310;2024-03-23T14:36:13;16.80;82.40
57566;DHT22;63999;43.882;-0.310;2024-03-23T14:38:39;16.80;83.70
57566;DHT22;63999;43.882;-0.310;2024-03-23T14:41:06;16.90;84.50
57566;DHT22;63999;43.882;-0.310;2024-03-23T14:43:32;17.00;85.10
57566;DHT22;63999;43.882;-0.310;2024-03-23T14:46:16;17.00;85.00
57566;DHT22;63999;43.882;-0.310;2024-03-23T14:48:44;17.00;84.10
57566;DHT22;63999;43.882;-0.310;2024-03-23T14:51:10;17.00;83.10
57566;DHT22;63999;43.882;-0.310;2024-03-23T14:53:41;16.90;83.60
57566;DHT22;63999;43.882;-0.310;2024-03-23T14:56:08;17.00;84.30
57566;DHT22;63999;43.882;-0.310;2024-03-23T14:58:36;17.00;84.40
57566;DHT22;63999;43.882;-0.310;2024-03-23T15:01:06;17.00;84.80
57566;DHT22;63999;43.882;-0.310;2024-03-23T15:03:38;17.20;85.40
57566;DHT22;63999;43.882;-0.310;2024-03-23T15:06:06;17.20;85.70
57566;DHT22;63999;43.882;-0.310;2024-03-23T15:08:35;17.30;85.80
57566;DHT22;63999;43.882;-0.310;2024-03-23T15:11:02;17.30;85.60
57566;DHT22;63999;43.882;-0.310;2024-03-23T15:13:32;17.30;86.10
57566;DHT22;63999;43.882;-0.310;2024-03-23T15:15:58;17.40;85.90
57566;DHT22;63999;43.882;-0.310;2024-03-23T15:18:24;17.40;86.90
57566;DHT22;63999;43.882;-0.310;2024-03-23T15:21:03;17.50;86.60
57566;DHT22;63999;43.882;-0.310;2024-03-23T15:23:32;17.40;85.30
57566;DHT22;63999;43.882;-0.310;2024-03-23T15:26:02;17.20;84.70
57566;DHT22;63999;43.882;-0.310;2024-03-23T15:28:32;17.20;85.30
57566;DHT22;63999;43.882;-0.310;2024-03-23T15:31:29;17.20;84.30
57566;DHT22;63999;43.882;-0.310;2024-03-23T15:33:55;17.20;83.70
57566;DHT22;63999;43.882;-0.310;2024-03-23T15:36:21;17.20;84.20
57566;DHT22;63999;43.882;-0.310;2024-03-23T15:38:48;17.20;84.00
57566;DHT22;63999;43.882;-0.310;2024-03-23T15:41:14;17.20;84.50
57566;DHT22;63999;43.882;-0.310;2024-03-23T15:43:41;17.20;83.80
57566;DHT22;63999;43.882;-0.310;2024-03-23T15:46:07;17.20;83.90
57566;DHT22;63999;43.882;-0.310;2024-03-23T15:48:36;17.20;83.90
57566;DHT22;63999;43.882;-0.310;2024-03-23T15:51:03;17.20;83.50
57566;DHT22;63999;43.882;-0.310;2024-03-23T15:53:30;17.20;84.70
57566;DHT22;63999;43.882;-0.310;2024-03-23T15:58:24;17.30;83.30
57566;DHT22;63999;43.882;-0.310;2024-03-23T16:01:01;17.20;82.90
57566;DHT22;63999;43.882;-0.310;2024-03-23T16:03:28;17.20;83.70
57566;DHT22;63999;43.882;-0.310;2024-03-23T16:05:56;17.20;84.10
57566;DHT22;63999;43.882;-0.310;2024-03-23T16:08:23;17.30;84.80
57566;DHT22;63999;43.882;-0.310;2024-03-23T16:10:50;17.40;85.50
57566;DHT22;63999;43.882;-0.310;2024-03-23T16:13:16;17.50;85.40
57566;DHT22;63999;43.882;-0.310;2024-03-23T16:15:44;17.50;84.10
57566;DHT22;63999;43.882;-0.310;2024-03-23T16:18:10;17.40;84.00
57566;DHT22;63999;43.882;-0.310;2024-03-23T16:20:37;17.30;83.40
57566;DHT22;63999;43.882;-0.310;2024-03-23T16:23:03;17.30;84.20
57566;DHT22;63999;43.882;-0.310;2024-03-23T16:25:30;17.30;84.10